Unicom:                    122.8

AWOS:                  118.275

Elevation           1458’ MSL

TPA:                   2500’ MSL

06/24:         5003’ L   75’ W

PAPI:       06/Left     24/Left

(Operate lights on unicom freq.)

Traffic Pattern: Left

Beacon: Sunset to Sunrise

Windsock: yes, lighted

Segmented Circle: No

 

Cleveland Center: 126.72/291.65

FSS: Altoona

[Source: ADDS]
METAR
KFKL 200356Z AUTO 00000KT 10SM BKN090 18/18 A3012 RMK AO2 SLP192 T01830178 $ =
KFKL 192323Z 2000/2024 18002KT P6SM SKC FM201400 16005KT P6SM BKN200
TAF
KFKL 192323Z 2000/2024 18002KT P6SM SKC FM201400 16005KT P6SM BKN200 =
[Source: ADDS]
METAR
KDUJ 200353Z AUTO 13004KT 10SM CLR 20/13 A3012 RMK AO2 SLP187 T02000133 =
KDUJ 192323Z 2000/2024 18002KT P6SM SKC FM201400 16004KT P6SM BKN080
TAF
KDUJ 192323Z 2000/2024 18002KT P6SM SKC FM201400 16004KT P6SM BKN080 =

Airport Information. 

Runway Length: 5003ft x 75ft

Runways 6/24

Traffic Pattern: Left

PAPI’s: 2 light PAPI on left of both 6/24

TPA: 2500 msl

Field Elevation: 1458 msl

Surface: Asphalt

Beacon: Operates Sunset-Sunrise

Pilot Controlled Lighting:  yes 122.8

 

Fuel:

Jet-A w/prist

100 LL

Center point fueling available upon request.

 

Unicom Frequency: 122.8

AWOS Frequency: 118.27  (814-227-2899)

 

Cleveland Center: 126.72 (440-774-0442)

 

GPS Approach Plates for 6/24 download here: http://www.airnav.com/airport/KAXQ

[Source: ADDS]
METAR
KFKL 200356Z AUTO 00000KT 10SM BKN090 18/18 A3012 RMK AO2 SLP192 T01830178 $ =
KFKL 192323Z 2000/2024 18002KT P6SM SKC FM201400 16005KT P6SM BKN200
TAF
KFKL 192323Z 2000/2024 18002KT P6SM SKC FM201400 16005KT P6SM BKN200 =
[Source: ADDS]
METAR
KDUJ 200353Z AUTO 13004KT 10SM CLR 20/13 A3012 RMK AO2 SLP187 T02000133 =
KDUJ 192323Z 2000/2024 18002KT P6SM SKC FM201400 16004KT P6SM BKN080
TAF
KDUJ 192323Z 2000/2024 18002KT P6SM SKC FM201400 16004KT P6SM BKN080 =
The Clarion County Airport Authority Meetings for 2022 will be held the third Tuesday of each month at 7PM (1900 Hours) in the Airport Conference Room.